sensor_id;sensor_type;location;lat;lon;timestamp;P1;durP1;ratioP1;P2;durP2;ratioP2
537;SDS011;254;48.524;8.926;2022-09-14T00:00:03;3.3;;;1.6;;
537;SDS011;254;48.524;8.926;2022-09-14T00:01:05;3.8;;;1.9;;
537;SDS011;254;48.524;8.926;2022-09-14T00:02:01;2.8;;;1.7;;
537;SDS011;254;48.524;8.926;2022-09-14T00:03:02;2.6;;;1.6;;
537;SDS011;254;48.524;8.926;2022-09-14T00:04:04;4.2;;;1.7;;
537;SDS011;254;48.524;8.926;2022-09-14T00:05:02;4.4;;;1.9;;
537;SDS011;254;48.524;8.926;2022-09-14T00:06:03;2.9;;;1.8;;
537;SDS011;254;48.524;8.926;2022-09-14T00:07:02;4.2;;;1.8;;
537;SDS011;254;48.524;8.926;2022-09-14T00:08:02;3.5;;;1.8;;
537;SDS011;254;48.524;8.926;2022-09-14T00:09:03;4.4;;;1.8;;
537;SDS011;254;48.524;8.926;2022-09-14T00:10:02;3.9;;;1.6;;
537;SDS011;254;48.524;8.926;2022-09-14T00:11:03;2.7;;;1.6;;
537;SDS011;254;48.524;8.926;2022-09-14T00:12:02;2.6;;;1.5;;
537;SDS011;254;48.524;8.926;2022-09-14T00:13:02;2.8;;;1.7;;
537;SDS011;254;48.524;8.926;2022-09-14T00:14:03;5.8;;;2.0;;
537;SDS011;254;48.524;8.926;2022-09-14T00:15:02;3.0;;;1.7;;
537;SDS011;254;48.524;8.926;2022-09-14T00:16:03;2.9;;;2.0;;
537;SDS011;254;48.524;8.926;2022-09-14T00:17:02;2.3;;;1.6;;
537;SDS011;254;48.524;8.926;2022-09-14T00:18:02;4.2;;;2.0;;
537;SDS011;254;48.524;8.926;2022-09-14T00:19:04;5.2;;;2.0;;
537;SDS011;254;48.524;8.926;2022-09-14T00:20:03;3.7;;;2.0;;
537;SDS011;254;48.524;8.926;2022-09-14T00:21:03;3.3;;;2.0;;
537;SDS011;254;48.524;8.926;2022-09-14T00:22:03;3.3;;;1.8;;
537;SDS011;254;48.524;8.926;2022-09-14T00:23:02;3.5;;;1.7;;
537;SDS011;254;48.524;8.926;2022-09-14T00:24:03;4.3;;;1.9;;
537;SDS011;254;48.524;8.926;2022-09-14T00:25:03;4.2;;;1.8;;
537;SDS011;254;48.524;8.926;2022-09-14T00:26:03;3.5;;;1.6;;
537;SDS011;254;48.524;8.926;2022-09-14T00:27:02;2.6;;;1.7;;
537;SDS011;254;48.524;8.926;2022-09-14T00:28:02;3.4;;;1.6;;
537;SDS011;254;48.524;8.926;2022-09-14T00:29:04;4.1;;;1.8;;
537;SDS011;254;48.524;8.926;2022-09-14T00:30:03;3.2;;;1.8;;
537;SDS011;254;48.524;8.926;2022-09-14T00:31:02;5.6;;;1.8;;
537;SDS011;254;48.524;8.926;2022-09-14T00:32:02;3.0;;;1.5;;
537;SDS011;254;48.524;8.926;2022-09-14T00:33:02;4.9;;;1.7;;
537;SDS011;254;48.524;8.926;2022-09-14T00:34:03;3.4;;;1.8;;
537;SDS011;254;48.524;8.926;2022-09-14T00:35:02;2.8;;;1.6;;
537;SDS011;254;48.524;8.926;2022-09-14T00:36:03;2.6;;;1.7;;
537;SDS011;254;48.524;8.926;2022-09-14T00:37:03;3.1;;;1.7;;
537;SDS011;254;48.524;8.926;2022-09-14T00:38:02;2.4;;;1.7;;
537;SDS011;254;48.524;8.926;2022-09-14T00:39:02;3.6;;;1.6;;
537;SDS011;254;48.524;8.926;2022-09-14T00:40:03;3.9;;;1.8;;
537;SDS011;254;48.524;8.926;2022-09-14T00:41:03;4.2;;;1.6;;
537;SDS011;254;48.524;8.926;2022-09-14T00:42:03;4.1;;;1.8;;
537;SDS011;254;48.524;8.926;2022-09-14T00:43:02;3.4;;;1.6;;
537;SDS011;254;48.524;8.926;2022-09-14T00:44:03;3.7;;;1.7;;
537;SDS011;254;48.524;8.926;2022-09-14T00:45:04;2.4;;;1.7;;
537;SDS011;254;48.524;8.926;2022-09-14T00:46:02;3.6;;;1.7;;
537;SDS011;254;48.524;8.926;2022-09-14T00:47:02;3.1;;;1.7;;
537;SDS011;254;48.524;8.926;2022-09-14T00:48:03;2.4;;;1.7;;
537;SDS011;254;48.524;8.926;2022-09-14T00:49:04;3.5;;;1.9;;
537;SDS011;254;48.524;8.926;2022-09-14T00:50:02;3.2;;;1.6;;
537;SDS011;254;48.524;8.926;2022-09-14T00:51:02;4.6;;;1.7;;
537;SDS011;254;48.524;8.926;2022-09-14T00:52:04;3.1;;;1.6;;
537;SDS011;254;48.524;8.926;2022-09-14T00:53:02;4.8;;;1.9;;
537;SDS011;254;48.524;8.926;2022-09-14T00:54:02;6.4;;;1.8;;
537;SDS011;254;48.524;8.926;2022-09-14T00:55:04;2.7;;;1.6;;
537;SDS011;254;48.524;8.926;2022-09-14T00:56:02;2.5;;;1.8;;
537;SDS011;254;48.524;8.926;2022-09-14T00:57:02;3.5;;;1.7;;
537;SDS011;254;48.524;8.926;2022-09-14T00:58:02;2.4;;;1.7;;
537;SDS011;254;48.524;8.926;2022-09-14T00:59:04;3.8;;;1.9;;
537;SDS011;254;48.524;8.926;2022-09-14T01:00:03;4.9;;;1.5;;
537;SDS011;254;48.524;8.926;2022-09-14T01:01:02;2.6;;;1.9;;
537;SDS011;254;48.524;8.926;2022-09-14T01:02:02;3.0;;;1.7;;
537;SDS011;254;48.524;8.926;2022-09-14T01:03:02;3.9;;;1.8;;
537;SDS011;254;48.524;8.926;2022-09-14T01:04:02;2.7;;;1.7;;
537;SDS011;254;48.524;8.926;2022-09-14T01:05:03;3.5;;;2.0;;
537;SDS011;254;48.524;8.926;2022-09-14T01:06:04;4.3;;;2.0;;
537;SDS011;254;48.524;8.926;2022-09-14T01:07:05;2.7;;;1.8;;
537;SDS011;254;48.524;8.926;2022-09-14T01:08:07;2.5;;;1.8;;
537;SDS011;254;48.524;8.926;2022-09-14T01:09:06;3.4;;;1.8;;
537;SDS011;254;48.524;8.926;2022-09-14T01:10:04;3.8;;;1.9;;
537;SDS011;254;48.524;8.926;2022-09-14T01:11:06;3.5;;;2.0;;
537;SDS011;254;48.524;8.926;2022-09-14T01:12:06;5.8;;;1.9;;
537;SDS011;254;48.524;8.926;2022-09-14T01:13:06;2.5;;;1.8;;
537;SDS011;254;48.524;8.926;2022-09-14T01:14:04;3.8;;;1.9;;
537;SDS011;254;48.524;8.926;2022-09-14T01:15:04;3.9;;;1.9;;
537;SDS011;254;48.524;8.926;2022-09-14T01:16:04;5.0;;;1.9;;
537;SDS011;254;48.524;8.926;2022-09-14T01:17:04;4.0;;;2.0;;
537;SDS011;254;48.524;8.926;2022-09-14T01:18:03;4.7;;;2.1;;
537;SDS011;254;48.524;8.926;2022-09-14T01:19:04;3.3;;;2.0;;
537;SDS011;254;48.524;8.926;2022-09-14T01:20:08;3.9;;;2.1;;
537;SDS011;254;48.524;8.926;2022-09-14T01:21:03;2.5;;;2.1;;
537;SDS011;254;48.524;8.926;2022-09-14T01:22:04;3.6;;;2.4;;
537;SDS011;254;48.524;8.926;2022-09-14T01:23:05;2.9;;;2.2;;
537;SDS011;254;48.524;8.926;2022-09-14T01:24:05;3.4;;;2.2;;
537;SDS011;254;48.524;8.926;2022-09-14T01:25:06;3.6;;;2.2;;
537;SDS011;254;48.524;8.926;2022-09-14T01:26:10;3.8;;;2.2;;
537;SDS011;254;48.524;8.926;2022-09-14T01:27:33;4.1;;;2.3;;
537;SDS011;254;48.524;8.926;2022-09-14T01:28:04;2.7;;;1.9;;
537;SDS011;254;48.524;8.926;2022-09-14T01:29:04;3.1;;;2.0;;
537;SDS011;254;48.524;8.926;2022-09-14T01:30:04;4.2;;;2.2;;
537;SDS011;254;48.524;8.926;2022-09-14T01:31:02;3.0;;;2.2;;
537;SDS011;254;48.524;8.926;2022-09-14T01:32:04;2.7;;;2.2;;
537;SDS011;254;48.524;8.926;2022-09-14T01:33:03;5.4;;;2.1;;
537;SDS011;254;48.524;8.926;2022-09-14T01:34:04;4.7;;;2.0;;
537;SDS011;254;48.524;8.926;2022-09-14T01:35:04;5.6;;;2.5;;
537;SDS011;254;48.524;8.926;2022-09-14T01:36:02;3.8;;;2.3;;
537;SDS011;254;48.524;8.926;2022-09-14T01:37:03;2.9;;;2.1;;
537;SDS011;254;48.524;8.926;2022-09-14T01:38:03;3.9;;;2.2;;
537;SDS011;254;48.524;8.926;2022-09-14T01:39:02;3.2;;;2.2;;
537;SDS011;254;48.524;8.926;2022-09-14T01:40:04;3.4;;;2.2;;
537;SDS011;254;48.524;8.926;2022-09-14T01:41:03;3.2;;;2.3;;
537;SDS011;254;48.524;8.926;2022-09-14T01:42:02;3.8;;;2.3;;
537;SDS011;254;48.524;8.926;2022-09-14T01:43:03;4.3;;;2.4;;
537;SDS011;254;48.524;8.926;2022-09-14T01:44:05;3.8;;;2.2;;
537;SDS011;254;48.524;8.926;2022-09-14T01:45:05;3.3;;;2.5;;
537;SDS011;254;48.524;8.926;2022-09-14T01:46:03;5.2;;;2.6;;
537;SDS011;254;48.524;8.926;2022-09-14T01:47:06;3.4;;;2.5;;
537;SDS011;254;48.524;8.926;2022-09-14T01:48:04;5.6;;;2.4;;
537;SDS011;254;48.524;8.926;2022-09-14T01:49:03;3.9;;;2.7;;
537;SDS011;254;48.524;8.926;2022-09-14T01:50:02;5.1;;;2.6;;
537;SDS011;254;48.524;8.926;2022-09-14T01:51:03;4.1;;;2.4;;
537;SDS011;254;48.524;8.926;2022-09-14T01:52:04;4.1;;;2.4;;
537;SDS011;254;48.524;8.926;2022-09-14T01:53:04;5.3;;;2.3;;
537;SDS011;254;48.524;8.926;2022-09-14T01:54:04;4.1;;;2.3;;
537;SDS011;254;48.524;8.926;2022-09-14T01:55:04;4.4;;;2.3;;
537;SDS011;254;48.524;8.926;2022-09-14T01:56:03;3.6;;;2.2;;
537;SDS011;254;48.524;8.926;2022-09-14T01:57:03;3.5;;;2.2;;
537;SDS011;254;48.524;8.926;2022-09-14T01:58:03;5.1;;;2.2;;
537;SDS011;254;48.524;8.926;2022-09-14T01:59:04;4.4;;;2.4;;
537;SDS011;254;48.524;8.926;2022-09-14T02:00:04;2.5;;;2.1;;
537;SDS011;254;48.524;8.926;2022-09-14T02:01:03;4.1;;;2.1;;
537;SDS011;254;48.524;8.926;2022-09-14T02:02:03;5.1;;;2.4;;
537;SDS011;254;48.524;8.926;2022-09-14T02:03:03;4.5;;;2.1;;
537;SDS011;254;48.524;8.926;2022-09-14T02:04:04;4.1;;;2.5;;
537;SDS011;254;48.524;8.926;2022-09-14T02:05:04;4.6;;;2.0;;
537;SDS011;254;48.524;8.926;2022-09-14T02:06:03;3.4;;;2.1;;
537;SDS011;254;48.524;8.926;2022-09-14T02:07:02;5.6;;;2.2;;
537;SDS011;254;48.524;8.926;2022-09-14T02:08:03;5.1;;;2.4;;
537;SDS011;254;48.524;8.926;2022-09-14T02:09:02;4.1;;;2.0;;
537;SDS011;254;48.524;8.926;2022-09-14T02:10:02;4.8;;;2.0;;
537;SDS011;254;48.524;8.926;2022-09-14T02:11:03;3.5;;;2.1;;
537;SDS011;254;48.524;8.926;2022-09-14T02:12:02;3.7;;;2.0;;
537;SDS011;254;48.524;8.926;2022-09-14T02:13:02;4.5;;;1.9;;
537;SDS011;254;48.524;8.926;2022-09-14T02:14:02;3.8;;;1.9;;
537;SDS011;254;48.524;8.926;2022-09-14T02:15:03;3.8;;;1.9;;
537;SDS011;254;48.524;8.926;2022-09-14T02:16:03;4.8;;;1.9;;
537;SDS011;254;48.524;8.926;2022-09-14T02:17:02;4.7;;;1.9;;
537;SDS011;254;48.524;8.926;2022-09-14T02:18:03;4.2;;;2.0;;
537;SDS011;254;48.524;8.926;2022-09-14T02:19:02;3.6;;;2.2;;
537;SDS011;254;48.524;8.926;2022-09-14T02:20:03;7.6;;;2.6;;
537;SDS011;254;48.524;8.926;2022-09-14T02:21:04;3.8;;;2.3;;
537;SDS011;254;48.524;8.926;2022-09-14T02:22:02;4.3;;;2.0;;
537;SDS011;254;48.524;8.926;2022-09-14T02:23:02;3.7;;;2.0;;
537;SDS011;254;48.524;8.926;2022-09-14T02:24:02;3.7;;;2.0;;
537;SDS011;254;48.524;8.926;2022-09-14T02:25:02;3.7;;;2.1;;
537;SDS011;254;48.524;8.926;2022-09-14T02:26:01;6.6;;;2.0;;
537;SDS011;254;48.524;8.926;2022-09-14T02:27:02;5.2;;;2.1;;
537;SDS011;254;48.524;8.926;2022-09-14T02:28:03;3.6;;;2.0;;
537;SDS011;254;48.524;8.926;2022-09-14T02:29:02;2.7;;;2.0;;
537;SDS011;254;48.524;8.926;2022-09-14T02:30:03;3.5;;;1.9;;
537;SDS011;254;48.524;8.926;2022-09-14T02:31:06;3.4;;;2.2;;
537;SDS011;254;48.524;8.926;2022-09-14T02:32:05;4.5;;;2.0;;
537;SDS011;254;48.524;8.926;2022-09-14T02:33:04;3.3;;;2.1;;
537;SDS011;254;48.524;8.926;2022-09-14T02:34:04;3.7;;;2.0;;
537;SDS011;254;48.524;8.926;2022-09-14T02:35:06;4.2;;;2.1;;
537;SDS011;254;48.524;8.926;2022-09-14T02:36:04;4.3;;;1.9;;
537;SDS011;254;48.524;8.926;2022-09-14T02:37:04;3.8;;;2.1;;
537;SDS011;254;48.524;8.926;2022-09-14T02:38:03;3.9;;;2.0;;
537;SDS011;254;48.524;8.926;2022-09-14T02:39:03;6.1;;;2.0;;
537;SDS011;254;48.524;8.926;2022-09-14T02:40:05;7.7;;;2.1;;
537;SDS011;254;48.524;8.926;2022-09-14T02:41:03;5.2;;;2.4;;
537;SDS011;254;48.524;8.926;2022-09-14T02:42:04;3.9;;;2.1;;
537;SDS011;254;48.524;8.926;2022-09-14T02:43:06;2.9;;;2.0;;
537;SDS011;254;48.524;8.926;2022-09-14T02:44:03;3.6;;;1.9;;
537;SDS011;254;48.524;8.926;2022-09-14T02:45:05;4.6;;;2.1;;
537;SDS011;254;48.524;8.926;2022-09-14T02:46:04;5.1;;;2.1;;
537;SDS011;254;48.524;8.926;2022-09-14T02:47:03;2.5;;;1.9;;
537;SDS011;254;48.524;8.926;2022-09-14T02:48:03;3.8;;;1.9;;
537;SDS011;254;48.524;8.926;2022-09-14T02:49:03;3.9;;;2.0;;
537;SDS011;254;48.524;8.926;2022-09-14T02:50:03;3.4;;;1.9;;
537;SDS011;254;48.524;8.926;2022-09-14T02:51:03;4.8;;;2.0;;
537;SDS011;254;48.524;8.926;2022-09-14T02:52:05;3.8;;;2.0;;
537;SDS011;254;48.524;8.926;2022-09-14T02:53:04;4.1;;;2.1;;
537;SDS011;254;48.524;8.926;2022-09-14T02:54:03;4.5;;;2.3;;
537;SDS011;254;48.524;8.926;2022-09-14T02:55:04;4.6;;;2.8;;
537;SDS011;254;48.524;8.926;2022-09-14T02:56:02;6.4;;;2.4;;
537;SDS011;254;48.524;8.926;2022-09-14T02:57:02;4.2;;;2.3;;
537;SDS011;254;48.524;8.926;2022-09-14T02:58:04;3.6;;;2.3;;
537;SDS011;254;48.524;8.926;2022-09-14T02:59:03;4.8;;;2.5;;
537;SDS011;254;48.524;8.926;2022-09-14T03:00:03;4.9;;;2.7;;
537;SDS011;254;48.524;8.926;2022-09-14T03:01:03;4.2;;;2.6;;
537;SDS011;254;48.524;8.926;2022-09-14T03:02:02;4.0;;;2.2;;
537;SDS011;254;48.524;8.926;2022-09-14T03:03:02;6.1;;;2.4;;
537;SDS011;254;48.524;8.926;2022-09-14T03:04:02;5.2;;;2.3;;
537;SDS011;254;48.524;8.926;2022-09-14T03:05:02;4.6;;;2.4;;
537;SDS011;254;48.524;8.926;2022-09-14T03:06:03;5.9;;;2.4;;
537;SDS011;254;48.524;8.926;2022-09-14T03:07:01;4.4;;;2.2;;
537;SDS011;254;48.524;8.926;2022-09-14T03:08:03;4.0;;;2.2;;
537;SDS011;254;48.524;8.926;2022-09-14T03:09:03;3.1;;;2.1;;
537;SDS011;254;48.524;8.926;2022-09-14T03:10:02;5.3;;;2.2;;
537;SDS011;254;48.524;8.926;2022-09-14T03:11:02;4.3;;;2.2;;
537;SDS011;254;48.524;8.926;2022-09-14T03:12:02;4.3;;;2.3;;
537;SDS011;254;48.524;8.926;2022-09-14T03:13:02;4.5;;;2.4;;
537;SDS011;254;48.524;8.926;2022-09-14T03:14:03;4.6;;;2.1;;
537;SDS011;254;48.524;8.926;2022-09-14T03:15:02;7.8;;;2.5;;
537;SDS011;254;48.524;8.926;2022-09-14T03:16:04;4.5;;;2.1;;
537;SDS011;254;48.524;8.926;2022-09-14T03:17:03;3.9;;;2.1;;
537;SDS011;254;48.524;8.926;2022-09-14T03:18:01;4.8;;;2.3;;
537;SDS011;254;48.524;8.926;2022-09-14T03:19:02;3.5;;;2.1;;
537;SDS011;254;48.524;8.926;2022-09-14T03:20:02;4.6;;;2.5;;
537;SDS011;254;48.524;8.926;2022-09-14T03:21:02;4.0;;;2.4;;
537;SDS011;254;48.524;8.926;2022-09-14T03:22:02;6.9;;;2.3;;
537;SDS011;254;48.524;8.926;2022-09-14T03:23:03;5.5;;;2.7;;
537;SDS011;254;48.524;8.926;2022-09-14T03:24:03;3.9;;;2.6;;
537;SDS011;254;48.524;8.926;2022-09-14T03:25:02;5.5;;;2.4;;
537;SDS011;254;48.524;8.926;2022-09-14T03:26:05;7.5;;;2.7;;
537;SDS011;254;48.524;8.926;2022-09-14T03:27:02;4.0;;;2.4;;
537;SDS011;254;48.524;8.926;2022-09-14T03:28:03;3.1;;;2.4;;
537;SDS011;254;48.524;8.926;2022-09-14T03:29:02;5.0;;;2.8;;
537;SDS011;254;48.524;8.926;2022-09-14T03:30:02;6.3;;;2.8;;
537;SDS011;254;48.524;8.926;2022-09-14T03:31:02;5.0;;;2.8;;
537;SDS011;254;48.524;8.926;2022-09-14T03:32:02;4.6;;;2.7;;
537;SDS011;254;48.524;8.926;2022-09-14T03:33:01;3.6;;;2.4;;
537;SDS011;254;48.524;8.926;2022-09-14T03:34:02;5.3;;;2.8;;
537;SDS011;254;48.524;8.926;2022-09-14T03:35:03;4.7;;;3.0;;
537;SDS011;254;48.524;8.926;2022-09-14T03:36:08;4.1;;;3.1;;
537;SDS011;254;48.524;8.926;2022-09-14T03:37:02;3.9;;;2.9;;
537;SDS011;254;48.524;8.926;2022-09-14T03:38:02;4.7;;;3.0;;
537;SDS011;254;48.524;8.926;2022-09-14T03:39:03;3.5;;;2.7;;
537;SDS011;254;48.524;8.926;2022-09-14T03:40:02;4.9;;;2.8;;
537;SDS011;254;48.524;8.926;2022-09-14T03:41:06;5.9;;;2.8;;
537;SDS011;254;48.524;8.926;2022-09-14T03:42:02;4.8;;;3.3;;
537;SDS011;254;48.524;8.926;2022-09-14T03:43:02;5.6;;;3.1;;
537;SDS011;254;48.524;8.926;2022-09-14T03:44:02;4.5;;;2.8;;
537;SDS011;254;48.524;8.926;2022-09-14T03:45:02;4.1;;;2.9;;
537;SDS011;254;48.524;8.926;2022-09-14T03:46:04;4.9;;;2.9;;
537;SDS011;254;48.524;8.926;2022-09-14T03:47:02;6.5;;;3.0;;
537;SDS011;254;48.524;8.926;2022-09-14T03:48:02;5.2;;;2.8;;
537;SDS011;254;48.524;8.926;2022-09-14T03:49:02;4.3;;;3.0;;
537;SDS011;254;48.524;8.926;2022-09-14T03:50:03;4.9;;;3.0;;
537;SDS011;254;48.524;8.926;2022-09-14T03:51:03;3.7;;;2.8;;
537;SDS011;254;48.524;8.926;2022-09-14T03:52:02;6.4;;;2.9;;
537;SDS011;254;48.524;8.926;2022-09-14T03:53:03;4.4;;;3.5;;
537;SDS011;254;48.524;8.926;2022-09-14T03:54:02;5.3;;;2.7;;
537;SDS011;254;48.524;8.926;2022-09-14T03:55:03;7.5;;;3.3;;
537;SDS011;254;48.524;8.926;2022-09-14T03:56:05;5.4;;;3.3;;
537;SDS011;254;48.524;8.926;2022-09-14T03:57:03;6.7;;;3.1;;
537;SDS011;254;48.524;8.926;2022-09-14T03:58:02;5.1;;;3.3;;
537;SDS011;254;48.524;8.926;2022-09-14T03:59:02;4.5;;;3.5;;
537;SDS011;254;48.524;8.926;2022-09-14T04:00:03;5.9;;;3.8;;
537;SDS011;254;48.524;8.926;2022-09-14T04:01:03;3.8;;;3.4;;
537;SDS011;254;48.524;8.926;2022-09-14T04:02:02;5.7;;;3.5;;
537;SDS011;254;48.524;8.926;2022-09-14T04:03:03;4.1;;;3.2;;
537;SDS011;254;48.524;8.926;2022-09-14T04:04:03;7.0;;;3.4;;
537;SDS011;254;48.524;8.926;2022-09-14T04:05:02;3.4;;;3.1;;
537;SDS011;254;48.524;8.926;2022-09-14T04:06:02;5.3;;;3.2;;
537;SDS011;254;48.524;8.926;2022-09-14T04:07:02;4.7;;;3.4;;
537;SDS011;254;48.524;8.926;2022-09-14T04:08:02;5.1;;;3.1;;
537;SDS011;254;48.524;8.926;2022-09-14T04:09:02;5.8;;;3.2;;
537;SDS011;254;48.524;8.926;2022-09-14T04:10:03;4.1;;;3.1;;
537;SDS011;254;48.524;8.926;2022-09-14T04:11:05;5.2;;;3.4;;
537;SDS011;254;48.524;8.926;2022-09-14T04:12:02;6.6;;;3.1;;
537;SDS011;254;48.524;8.926;2022-09-14T04:13:03;4.7;;;3.4;;
537;SDS011;254;48.524;8.926;2022-09-14T04:14:03;3.9;;;3.4;;
537;SDS011;254;48.524;8.926;2022-09-14T04:15:03;4.6;;;3.5;;
537;SDS011;254;48.524;8.926;2022-09-14T04:16:02;4.9;;;3.4;;
537;SDS011;254;48.524;8.926;2022-09-14T04:17:03;6.1;;;3.8;;
537;SDS011;254;48.524;8.926;2022-09-14T04:18:02;6.7;;;3.8;;
537;SDS011;254;48.524;8.926;2022-09-14T04:19:02;4.2;;;3.2;;
537;SDS011;254;48.524;8.926;2022-09-14T04:20:03;5.0;;;3.7;;
537;SDS011;254;48.524;8.926;2022-09-14T04:21:02;4.7;;;3.4;;
537;SDS011;254;48.524;8.926;2022-09-14T04:22:02;5.4;;;3.4;;
537;SDS011;254;48.524;8.926;2022-09-14T04:23:03;4.8;;;3.3;;
537;SDS011;254;48.524;8.926;2022-09-14T04:24:02;8.4;;;4.1;;
537;SDS011;254;48.524;8.926;2022-09-14T04:25:03;6.2;;;3.3;;
537;SDS011;254;48.524;8.926;2022-09-14T04:26:05;6.1;;;3.4;;
537;SDS011;254;48.524;8.926;2022-09-14T04:27:03;5.7;;;3.6;;
537;SDS011;254;48.524;8.926;2022-09-14T04:28:01;4.9;;;3.1;;
537;SDS011;254;48.524;8.926;2022-09-14T04:29:02;6.3;;;3.5;;
537;SDS011;254;48.524;8.926;2022-09-14T04:30:03;6.1;;;3.4;;
537;SDS011;254;48.524;8.926;2022-09-14T04:31:01;3.8;;;3.4;;
537;SDS011;254;48.524;8.926;2022-09-14T04:32:02;4.4;;;3.2;;
537;SDS011;254;48.524;8.926;2022-09-14T04:33:03;5.0;;;3.4;;
537;SDS011;254;48.524;8.926;2022-09-14T04:34:02;6.1;;;3.2;;
537;SDS011;254;48.524;8.926;2022-09-14T04:35:03;5.1;;;3.1;;
537;SDS011;254;48.524;8.926;2022-09-14T04:36:03;4.4;;;3.1;;
537;SDS011;254;48.524;8.926;2022-09-14T04:37:02;4.7;;;3.7;;
537;SDS011;254;48.524;8.926;2022-09-14T04:38:02;5.3;;;3.0;;
537;SDS011;254;48.524;8.926;2022-09-14T04:39:02;5.4;;;3.4;;
537;SDS011;254;48.524;8.926;2022-09-14T04:40:03;5.2;;;3.4;;
537;SDS011;254;48.524;8.926;2022-09-14T04:41:03;3.7;;;2.9;;
537;SDS011;254;48.524;8.926;2022-09-14T04:42:02;6.2;;;3.5;;
537;SDS011;254;48.524;8.926;2022-09-14T04:43:02;4.2;;;3.1;;
537;SDS011;254;48.524;8.926;2022-09-14T04:44:02;5.6;;;3.3;;
537;SDS011;254;48.524;8.926;2022-09-14T04:45:03;6.4;;;3.4;;
537;SDS011;254;48.524;8.926;2022-09-14T04:46:02;3.8;;;3.1;;
537;SDS011;254;48.524;8.926;2022-09-14T04:47:02;6.1;;;3.8;;
537;SDS011;254;48.524;8.926;2022-09-14T04:48:03;4.4;;;3.4;;
537;SDS011;254;48.524;8.926;2022-09-14T04:49:02;5.0;;;3.0;;
537;SDS011;254;48.524;8.926;2022-09-14T04:50:02;5.8;;;3.3;;
537;SDS011;254;48.524;8.926;2022-09-14T04:51:03;3.8;;;3.0;;
537;SDS011;254;48.524;8.926;2022-09-14T04:52:02;5.6;;;3.1;;
537;SDS011;254;48.524;8.926;2022-09-14T04:53:02;4.7;;;3.1;;
537;SDS011;254;48.524;8.926;2022-09-14T04:54:04;3.8;;;3.2;;
537;SDS011;254;48.524;8.926;2022-09-14T04:55:02;6.8;;;3.3;;
537;SDS011;254;48.524;8.926;2022-09-14T04:56:03;5.7;;;3.6;;
537;SDS011;254;48.524;8.926;2022-09-14T04:57:02;4.0;;;3.1;;
537;SDS011;254;48.524;8.926;2022-09-14T04:58:03;7.4;;;3.5;;
537;SDS011;254;48.524;8.926;2022-09-14T04:59:02;4.6;;;3.0;;
537;SDS011;254;48.524;8.926;2022-09-14T05:00:03;6.6;;;3.5;;
537;SDS011;254;48.524;8.926;2022-09-14T05:01:03;6.3;;;3.3;;
537;SDS011;254;48.524;8.926;2022-09-14T05:02:03;4.6;;;3.3;;
537;SDS011;254;48.524;8.926;2022-09-14T05:03:03;5.6;;;2.9;;
537;SDS011;254;48.524;8.926;2022-09-14T05:04:03;5.5;;;3.6;;
537;SDS011;254;48.524;8.926;2022-09-14T05:05:03;6.3;;;3.5;;
537;SDS011;254;48.524;8.926;2022-09-14T05:06:01;4.6;;;3.3;;
537;SDS011;254;48.524;8.926;2022-09-14T05:07:02;4.4;;;3.3;;
537;SDS011;254;48.524;8.926;2022-09-14T05:08:03;5.8;;;3.3;;
537;SDS011;254;48.524;8.926;2022-09-14T05:09:02;6.0;;;3.4;;
537;SDS011;254;48.524;8.926;2022-09-14T05:10:03;4.8;;;3.2;;
537;SDS011;254;48.524;8.926;2022-09-14T05:11:02;5.6;;;3.3;;
537;SDS011;254;48.524;8.926;2022-09-14T05:12:03;6.5;;;3.6;;
537;SDS011;254;48.524;8.926;2022-09-14T05:13:02;5.4;;;3.7;;
537;SDS011;254;48.524;8.926;2022-09-14T05:14:02;5.6;;;3.5;;
537;SDS011;254;48.524;8.926;2022-09-14T05:15:03;6.4;;;3.5;;
537;SDS011;254;48.524;8.926;2022-09-14T05:16:05;3.9;;;3.2;;
537;SDS011;254;48.524;8.926;2022-09-14T05:17:02;5.7;;;3.2;;
537;SDS011;254;48.524;8.926;2022-09-14T05:18:02;4.1;;;3.0;;
537;SDS011;254;48.524;8.926;2022-09-14T05:19:03;4.6;;;3.5;;
537;SDS011;254;48.524;8.926;2022-09-14T05:20:03;6.3;;;3.4;;
537;SDS011;254;48.524;8.926;2022-09-14T05:21:03;4.2;;;3.3;;
537;SDS011;254;48.524;8.926;2022-09-14T05:22:03;6.8;;;3.4;;
537;SDS011;254;48.524;8.926;2022-09-14T05:23:01;7.1;;;3.6;;
537;SDS011;254;48.524;8.926;2022-09-14T05:24:03;4.3;;;3.5;;
537;SDS011;254;48.524;8.926;2022-09-14T05:25:02;5.8;;;3.4;;
537;SDS011;254;48.524;8.926;2022-09-14T05:26:02;4.5;;;3.2;;
537;SDS011;254;48.524;8.926;2022-09-14T05:27:02;4.9;;;3.3;;
537;SDS011;254;48.524;8.926;2022-09-14T05:28:03;6.9;;;3.5;;
537;SDS011;254;48.524;8.926;2022-09-14T05:29:02;4.5;;;3.5;;
537;SDS011;254;48.524;8.926;2022-09-14T05:30:03;7.1;;;3.4;;
537;SDS011;254;48.524;8.926;2022-09-14T05:31:03;4.9;;;3.8;;
537;SDS011;254;48.524;8.926;2022-09-14T05:32:02;7.4;;;3.6;;
537;SDS011;254;48.524;8.926;2022-09-14T05:33:03;6.1;;;3.3;;
537;SDS011;254;48.524;8.926;2022-09-14T05:34:02;4.6;;;3.0;;
537;SDS011;254;48.524;8.926;2022-09-14T05:35:02;7.8;;;3.6;;
537;SDS011;254;48.524;8.926;2022-09-14T05:36:02;5.9;;;3.5;;
537;SDS011;254;48.524;8.926;2022-09-14T05:37:02;5.5;;;3.4;;
537;SDS011;254;48.524;8.926;2022-09-14T05:38:02;5.5;;;3.2;;
537;SDS011;254;48.524;8.926;2022-09-14T05:39:02;4.8;;;3.6;;
537;SDS011;254;48.524;8.926;2022-09-14T05:40:03;4.5;;;3.7;;
537;SDS011;254;48.524;8.926;2022-09-14T05:41:03;6.0;;;3.3;;
537;SDS011;254;48.524;8.926;2022-09-14T05:42:02;6.4;;;3.3;;
537;SDS011;254;48.524;8.926;2022-09-14T05:43:02;4.7;;;3.2;;
537;SDS011;254;48.524;8.926;2022-09-14T05:44:03;4.3;;;3.3;;
537;SDS011;254;48.524;8.926;2022-09-14T05:45:02;6.7;;;3.0;;
537;SDS011;254;48.524;8.926;2022-09-14T05:46:03;5.7;;;3.5;;
537;SDS011;254;48.524;8.926;2022-09-14T05:47:02;5.2;;;3.2;;
537;SDS011;254;48.524;8.926;2022-09-14T05:48:03;4.6;;;3.1;;
537;SDS011;254;48.524;8.926;2022-09-14T05:49:02;5.3;;;3.5;;
537;SDS011;254;48.524;8.926;2022-09-14T05:50:02;6.0;;;3.4;;
537;SDS011;254;48.524;8.926;2022-09-14T05:51:04;6.2;;;3.4;;
537;SDS011;254;48.524;8.926;2022-09-14T05:52:01;4.0;;;3.1;;
537;SDS011;254;48.524;8.926;2022-09-14T05:53:02;7.3;;;3.4;;
537;SDS011;254;48.524;8.926;2022-09-14T05:54:03;4.6;;;3.3;;
537;SDS011;254;48.524;8.926;2022-09-14T05:55:02;4.2;;;3.1;;
537;SDS011;254;48.524;8.926;2022-09-14T05:56:04;5.8;;;3.3;;
537;SDS011;254;48.524;8.926;2022-09-14T05:57:02;5.0;;;3.2;;
537;SDS011;254;48.524;8.926;2022-09-14T05:58:02;4.6;;;3.2;;
537;SDS011;254;48.524;8.926;2022-09-14T05:59:03;4.2;;;3.4;;
537;SDS011;254;48.524;8.926;2022-09-14T06:00:03;5.3;;;3.1;;
537;SDS011;254;48.524;8.926;2022-09-14T06:01:06;3.6;;;2.9;;
537;SDS011;254;48.524;8.926;2022-09-14T06:02:02;5.8;;;3.6;;
537;SDS011;254;48.524;8.926;2022-09-14T06:03:02;4.8;;;3.5;;
537;SDS011;254;48.524;8.926;2022-09-14T06:04:02;7.4;;;3.3;;
537;SDS011;254;48.524;8.926;2022-09-14T06:05:03;4.3;;;3.3;;
537;SDS011;254;48.524;8.926;2022-09-14T06:06:02;5.2;;;3.7;;
537;SDS011;254;48.524;8.926;2022-09-14T06:07:02;5.6;;;3.4;;
537;SDS011;254;48.524;8.926;2022-09-14T06:08:02;6.2;;;3.3;;
537;SDS011;254;48.524;8.926;2022-09-14T06:09:02;7.5;;;3.3;;
537;SDS011;254;48.524;8.926;2022-09-14T06:10:03;5.8;;;3.1;;
537;SDS011;254;48.524;8.926;2022-09-14T06:11:02;6.0;;;3.4;;
537;SDS011;254;48.524;8.926;2022-09-14T06:12:02;5.3;;;3.1;;
537;SDS011;254;48.524;8.926;2022-09-14T06:13:03;4.6;;;3.3;;
537;SDS011;254;48.524;8.926;2022-09-14T06:14:03;4.9;;;3.0;;
537;SDS011;254;48.524;8.926;2022-09-14T06:15:03;6.1;;;3.0;;
537;SDS011;254;48.524;8.926;2022-09-14T06:16:03;5.7;;;3.2;;
537;SDS011;254;48.524;8.926;2022-09-14T06:17:02;3.7;;;3.1;;
537;SDS011;254;48.524;8.926;2022-09-14T06:18:02;6.2;;;3.2;;
537;SDS011;254;48.524;8.926;2022-09-14T06:19:02;5.4;;;3.2;;
537;SDS011;254;48.524;8.926;2022-09-14T06:20:03;5.6;;;2.6;;
537;SDS011;254;48.524;8.926;2022-09-14T06:21:02;4.7;;;3.1;;
537;SDS011;254;48.524;8.926;2022-09-14T06:22:02;5.2;;;3.0;;
537;SDS011;254;48.524;8.926;2022-09-14T06:23:03;5.2;;;3.1;;
537;SDS011;254;48.524;8.926;2022-09-14T06:24:02;7.5;;;3.0;;
537;SDS011;254;48.524;8.926;2022-09-14T06:25:03;6.4;;;2.8;;
537;SDS011;254;48.524;8.926;2022-09-14T06:26:03;4.1;;;3.3;;
537;SDS011;254;48.524;8.926;2022-09-14T06:27:02;6.1;;;3.0;;
537;SDS011;254;48.524;8.926;2022-09-14T06:28:03;5.0;;;2.6;;
537;SDS011;254;48.524;8.926;2022-09-14T06:29:02;4.7;;;2.6;;
537;SDS011;254;48.524;8.926;2022-09-14T06:30:02;4.5;;;2.8;;
537;SDS011;254;48.524;8.926;2022-09-14T06:31:03;4.4;;;2.7;;
537;SDS011;254;48.524;8.926;2022-09-14T06:32:02;5.7;;;2.8;;
537;SDS011;254;48.524;8.926;2022-09-14T06:33:03;5.2;;;2.7;;
537;SDS011;254;48.524;8.926;2022-09-14T06:34:02;5.5;;;3.1;;
537;SDS011;254;48.524;8.926;2022-09-14T06:35:02;5.2;;;2.6;;
537;SDS011;254;48.524;8.926;2022-09-14T06:36:03;3.9;;;2.7;;
537;SDS011;254;48.524;8.926;2022-09-14T06:37:02;5.5;;;3.4;;